sensor_id;sensor_type;location;lat;lon;timestamp;temperature;humidity
62154;DHT22;48140;45.486;9.226;2023-03-14T00:01:31;11.50;99.90
62154;DHT22;48140;45.486;9.226;2023-03-14T00:03:56;11.50;99.90
62154;DHT22;48140;45.486;9.226;2023-03-14T00:06:22;11.50;99.90
62154;DHT22;48140;45.486;9.226;2023-03-14T00:08:48;11.50;99.90
62154;DHT22;48140;45.486;9.226;2023-03-14T00:11:17;11.60;99.90
62154;DHT22;48140;45.486;9.226;2023-03-14T00:13:43;11.60;99.90
62154;DHT22;48140;45.486;9.226;2023-03-14T00:16:12;11.60;99.90
62154;DHT22;48140;45.486;9.226;2023-03-14T00:18:38;12.30;99.90
62154;DHT22;48140;45.486;9.226;2023-03-14T00:21:06;11.50;99.90
62154;DHT22;48140;45.486;9.226;2023-03-14T00:23:34;11.60;99.90
62154;DHT22;48140;45.486;9.226;2023-03-14T00:26:06;11.60;99.90
62154;DHT22;48140;45.486;9.226;2023-03-14T00:28:32;11.70;99.90
62154;DHT22;48140;45.486;9.226;2023-03-14T00:30:57;11.50;99.90
62154;DHT22;48140;45.486;9.226;2023-03-14T00:33:23;11.50;99.90
62154;DHT22;48140;45.486;9.226;2023-03-14T00:35:57;11.60;99.90
62154;DHT22;48140;45.486;9.226;2023-03-14T00:38:24;11.60;99.90
62154;DHT22;48140;45.486;9.226;2023-03-14T00:40:53;11.60;99.90
62154;DHT22;48140;45.486;9.226;2023-03-14T00:43:22;11.50;99.90
62154;DHT22;48140;45.486;9.226;2023-03-14T00:45:52;11.50;99.90
62154;DHT22;48140;45.486;9.226;2023-03-14T00:48:18;11.40;99.90
62154;DHT22;48140;45.486;9.226;2023-03-14T00:50:45;11.50;99.90
62154;DHT22;48140;45.486;9.226;2023-03-14T00:53:11;11.40;99.90
62154;DHT22;48140;45.486;9.226;2023-03-14T00:55:40;11.40;99.90
62154;DHT22;48140;45.486;9.226;2023-03-14T00:58:08;11.40;99.90
62154;DHT22;48140;45.486;9.226;2023-03-14T01:00:34;11.40;99.90
62154;DHT22;48140;45.486;9.226;2023-03-14T01:03:01;11.30;99.90
62154;DHT22;48140;45.486;9.226;2023-03-14T01:15:48;11.30;99.90
62154;DHT22;48140;45.486;9.226;2023-03-14T01:18:13;10.20;99.90
62154;DHT22;48140;45.486;9.226;2023-03-14T01:20:41;11.30;99.90
62154;DHT22;48140;45.486;9.226;2023-03-14T01:31:14;11.30;99.90
62154;DHT22;48140;45.486;9.226;2023-03-14T01:33:40;11.20;99.90
62154;DHT22;48140;45.486;9.226;2023-03-14T01:36:07;11.30;99.90
62154;DHT22;48140;45.486;9.226;2023-03-14T01:38:35;12.10;99.90
62154;DHT22;48140;45.486;9.226;2023-03-14T01:41:01;11.30;99.90
62154;DHT22;48140;45.486;9.226;2023-03-14T01:43:27;11.30;99.90
62154;DHT22;48140;45.486;9.226;2023-03-14T01:49:07;11.20;99.90
62154;DHT22;48140;45.486;9.226;2023-03-14T01:51:56;11.10;99.90
62154;DHT22;48140;45.486;9.226;2023-03-14T01:54:36;11.10;99.90
62154;DHT22;48140;45.486;9.226;2023-03-14T01:57:25;11.10;99.90
62154;DHT22;48140;45.486;9.226;2023-03-14T02:00:09;11.10;99.90
62154;DHT22;48140;45.486;9.226;2023-03-14T02:02:40;11.00;99.90
62154;DHT22;48140;45.486;9.226;2023-03-14T02:05:08;11.10;99.90
62154;DHT22;48140;45.486;9.226;2023-03-14T02:07:46;11.00;99.90
62154;DHT22;48140;45.486;9.226;2023-03-14T02:10:14;11.00;99.90
62154;DHT22;48140;45.486;9.226;2023-03-14T02:12:41;11.00;99.90
62154;DHT22;48140;45.486;9.226;2023-03-14T02:15:07;11.00;99.90
62154;DHT22;48140;45.486;9.226;2023-03-14T02:17:33;10.90;99.90
62154;DHT22;48140;45.486;9.226;2023-03-14T02:22:31;11.00;99.90
62154;DHT22;48140;45.486;9.226;2023-03-14T02:25:12;10.90;99.90
62154;DHT22;48140;45.486;9.226;2023-03-14T02:27:39;11.00;99.90
62154;DHT22;48140;45.486;9.226;2023-03-14T02:30:08;11.10;99.90
62154;DHT22;48140;45.486;9.226;2023-03-14T02:32:38;11.00;99.90
62154;DHT22;48140;45.486;9.226;2023-03-14T02:35:09;11.10;99.90
62154;DHT22;48140;45.486;9.226;2023-03-14T02:37:49;11.00;99.90
62154;DHT22;48140;45.486;9.226;2023-03-14T02:40:17;11.00;99.90
62154;DHT22;48140;45.486;9.226;2023-03-14T02:42:43;11.00;99.90
62154;DHT22;48140;45.486;9.226;2023-03-14T02:47:38;11.00;99.90
62154;DHT22;48140;45.486;9.226;2023-03-14T02:50:18;11.10;99.90
62154;DHT22;48140;45.486;9.226;2023-03-14T02:52:45;11.10;99.90
62154;DHT22;48140;45.486;9.226;2023-03-14T02:55:11;11.10;99.90
62154;DHT22;48140;45.486;9.226;2023-03-14T02:57:36;11.10;99.90
62154;DHT22;48140;45.486;9.226;2023-03-14T03:00:03;11.10;99.90
62154;DHT22;48140;45.486;9.226;2023-03-14T03:02:32;11.10;99.90
62154;DHT22;48140;45.486;9.226;2023-03-14T03:04:57;11.10;99.90
62154;DHT22;48140;45.486;9.226;2023-03-14T03:07:23;11.10;99.90
62154;DHT22;48140;45.486;9.226;2023-03-14T03:09:49;11.10;99.90
62154;DHT22;48140;45.486;9.226;2023-03-14T03:12:15;11.10;99.90
62154;DHT22;48140;45.486;9.226;2023-03-14T03:14:40;11.10;99.90
62154;DHT22;48140;45.486;9.226;2023-03-14T03:17:06;11.00;99.90
62154;DHT22;48140;45.486;9.226;2023-03-14T03:19:33;11.60;99.90
62154;DHT22;48140;45.486;9.226;2023-03-14T03:21:59;11.00;99.90
62154;DHT22;48140;45.486;9.226;2023-03-14T03:24:26;11.00;99.90
62154;DHT22;48140;45.486;9.226;2023-03-14T03:26:51;11.00;99.90
62154;DHT22;48140;45.486;9.226;2023-03-14T03:29:17;11.00;99.90
62154;DHT22;48140;45.486;9.226;2023-03-14T03:31:43;11.00;99.90
62154;DHT22;48140;45.486;9.226;2023-03-14T03:34:11;11.00;99.90
62154;DHT22;48140;45.486;9.226;2023-03-14T03:36:37;11.00;99.90
62154;DHT22;48140;45.486;9.226;2023-03-14T03:39:03;11.00;99.90
62154;DHT22;48140;45.486;9.226;2023-03-14T03:41:29;11.00;99.90
62154;DHT22;48140;45.486;9.226;2023-03-14T03:43:55;11.00;99.90
62154;DHT22;48140;45.486;9.226;2023-03-14T03:46:22;11.00;99.90
62154;DHT22;48140;45.486;9.226;2023-03-14T03:48:47;11.00;99.90
62154;DHT22;48140;45.486;9.226;2023-03-14T03:51:14;11.00;99.90
62154;DHT22;48140;45.486;9.226;2023-03-14T03:53:41;10.90;99.90
62154;DHT22;48140;45.486;9.226;2023-03-14T03:56:08;10.90;99.90
62154;DHT22;48140;45.486;9.226;2023-03-14T03:58:33;10.90;99.90
62154;DHT22;48140;45.486;9.226;2023-03-14T04:00:59;10.90;99.90
62154;DHT22;48140;45.486;9.226;2023-03-14T04:03:25;10.90;99.90
62154;DHT22;48140;45.486;9.226;2023-03-14T04:06:05;10.90;99.90
62154;DHT22;48140;45.486;9.226;2023-03-14T04:08:31;10.90;99.90
62154;DHT22;48140;45.486;9.226;2023-03-14T04:10:58;10.80;99.90
62154;DHT22;48140;45.486;9.226;2023-03-14T04:13:24;10.80;99.90
62154;DHT22;48140;45.486;9.226;2023-03-14T04:15:51;10.80;99.90
62154;DHT22;48140;45.486;9.226;2023-03-14T04:18:17;10.70;99.90
62154;DHT22;48140;45.486;9.226;2023-03-14T04:20:43;10.60;99.90
62154;DHT22;48140;45.486;9.226;2023-03-14T04:23:09;10.60;99.90
62154;DHT22;48140;45.486;9.226;2023-03-14T04:25:35;10.50;99.90
62154;DHT22;48140;45.486;9.226;2023-03-14T04:28:01;10.40;99.90
62154;DHT22;48140;45.486;9.226;2023-03-14T04:30:28;10.40;99.90
62154;DHT22;48140;45.486;9.226;2023-03-14T04:32:54;10.30;99.90
62154;DHT22;48140;45.486;9.226;2023-03-14T04:35:19;10.30;99.90
62154;DHT22;48140;45.486;9.226;2023-03-14T04:37:47;10.40;99.90
62154;DHT22;48140;45.486;9.226;2023-03-14T04:40:15;10.40;99.90
62154;DHT22;48140;45.486;9.226;2023-03-14T04:42:41;10.40;99.90
62154;DHT22;48140;45.486;9.226;2023-03-14T04:45:07;10.50;99.90
62154;DHT22;48140;45.486;9.226;2023-03-14T04:47:33;10.50;99.90
62154;DHT22;48140;45.486;9.226;2023-03-14T04:50:00;11.20;99.90
62154;DHT22;48140;45.486;9.226;2023-03-14T04:52:26;10.40;99.90
62154;DHT22;48140;45.486;9.226;2023-03-14T04:54:52;10.30;99.90
62154;DHT22;48140;45.486;9.226;2023-03-14T04:57:17;10.30;99.90
62154;DHT22;48140;45.486;9.226;2023-03-14T04:59:43;10.20;99.90
62154;DHT22;48140;45.486;9.226;2023-03-14T05:02:09;10.20;99.90
62154;DHT22;48140;45.486;9.226;2023-03-14T05:04:35;10.10;99.90
62154;DHT22;48140;45.486;9.226;2023-03-14T05:07:01;10.10;99.90
62154;DHT22;48140;45.486;9.226;2023-03-14T05:09:27;10.10;99.90
62154;DHT22;48140;45.486;9.226;2023-03-14T05:11:52;10.10;99.90
62154;DHT22;48140;45.486;9.226;2023-03-14T05:14:18;10.00;99.90
62154;DHT22;48140;45.486;9.226;2023-03-14T05:16:44;9.90;99.90
62154;DHT22;48140;45.486;9.226;2023-03-14T05:19:10;10.00;99.90
62154;DHT22;48140;45.486;9.226;2023-03-14T05:21:37;10.00;99.90
62154;DHT22;48140;45.486;9.226;2023-03-14T05:24:03;10.00;99.90
62154;DHT22;48140;45.486;9.226;2023-03-14T05:26:29;9.90;99.90
62154;DHT22;48140;45.486;9.226;2023-03-14T05:28:55;9.90;99.90
62154;DHT22;48140;45.486;9.226;2023-03-14T05:31:20;9.90;99.90
62154;DHT22;48140;45.486;9.226;2023-03-14T05:33:46;10.00;99.90
62154;DHT22;48140;45.486;9.226;2023-03-14T05:36:11;9.80;99.90
62154;DHT22;48140;45.486;9.226;2023-03-14T05:38:37;9.90;99.90
62154;DHT22;48140;45.486;9.226;2023-03-14T05:41:03;9.80;99.90
62154;DHT22;48140;45.486;9.226;2023-03-14T05:43:29;9.80;99.90
62154;DHT22;48140;45.486;9.226;2023-03-14T05:45:54;9.80;99.90
62154;DHT22;48140;45.486;9.226;2023-03-14T05:48:20;9.80;99.90
62154;DHT22;48140;45.486;9.226;2023-03-14T05:50:47;9.80;99.90
62154;DHT22;48140;45.486;9.226;2023-03-14T05:53:12;9.80;99.90
62154;DHT22;48140;45.486;9.226;2023-03-14T05:55:41;9.80;99.90
62154;DHT22;48140;45.486;9.226;2023-03-14T05:58:07;9.70;99.90
62154;DHT22;48140;45.486;9.226;2023-03-14T06:00:33;9.80;99.90
62154;DHT22;48140;45.486;9.226;2023-03-14T06:02:58;9.80;99.90
62154;DHT22;48140;45.486;9.226;2023-03-14T06:05:24;9.80;99.90
62154;DHT22;48140;45.486;9.226;2023-03-14T06:07:49;9.80;99.90
62154;DHT22;48140;45.486;9.226;2023-03-14T06:10:15;9.90;99.90
62154;DHT22;48140;45.486;9.226;2023-03-14T06:12:41;10.10;99.90
62154;DHT22;48140;45.486;9.226;2023-03-14T06:15:07;10.10;99.90
62154;DHT22;48140;45.486;9.226;2023-03-14T06:17:33;10.20;99.90
62154;DHT22;48140;45.486;9.226;2023-03-14T06:19:58;10.30;99.90
62154;DHT22;48140;45.486;9.226;2023-03-14T06:22:24;10.20;99.90
62154;DHT22;48140;45.486;9.226;2023-03-14T06:24:50;10.20;99.90
62154;DHT22;48140;45.486;9.226;2023-03-14T06:27:15;10.30;99.90
62154;DHT22;48140;45.486;9.226;2023-03-14T06:29:41;10.30;99.90
62154;DHT22;48140;45.486;9.226;2023-03-14T06:32:16;10.40;99.90
62154;DHT22;48140;45.486;9.226;2023-03-14T06:34:43;10.40;99.90
62154;DHT22;48140;45.486;9.226;2023-03-14T06:37:09;10.50;99.90
62154;DHT22;48140;45.486;9.226;2023-03-14T06:39:35;10.50;99.90
62154;DHT22;48140;45.486;9.226;2023-03-14T06:42:00;10.50;99.90
62154;DHT22;48140;45.486;9.226;2023-03-14T06:44:26;10.60;99.90
62154;DHT22;48140;45.486;9.226;2023-03-14T06:46:52;10.60;99.90
62154;DHT22;48140;45.486;9.226;2023-03-14T06:49:17;10.60;99.90
62154;DHT22;48140;45.486;9.226;2023-03-14T06:51:43;10.70;99.90
62154;DHT22;48140;45.486;9.226;2023-03-14T06:54:09;10.60;99.90
62154;DHT22;48140;45.486;9.226;2023-03-14T06:56:34;10.70;99.90
62154;DHT22;48140;45.486;9.226;2023-03-14T06:59:00;10.80;99.90
62154;DHT22;48140;45.486;9.226;2023-03-14T07:01:27;10.80;99.90
62154;DHT22;48140;45.486;9.226;2023-03-14T07:03:54;10.80;99.90
62154;DHT22;48140;45.486;9.226;2023-03-14T07:06:19;10.80;99.90
62154;DHT22;48140;45.486;9.226;2023-03-14T07:08:45;10.70;99.90
62154;DHT22;48140;45.486;9.226;2023-03-14T07:11:11;10.70;99.90
62154;DHT22;48140;45.486;9.226;2023-03-14T07:13:38;10.50;99.90
62154;DHT22;48140;45.486;9.226;2023-03-14T07:16:04;10.60;99.90
62154;DHT22;48140;45.486;9.226;2023-03-14T07:18:30;10.70;99.90
62154;DHT22;48140;45.486;9.226;2023-03-14T07:20:56;11.00;99.90
62154;DHT22;48140;45.486;9.226;2023-03-14T07:23:21;10.90;99.90
62154;DHT22;48140;45.486;9.226;2023-03-14T07:25:47;10.90;99.90
62154;DHT22;48140;45.486;9.226;2023-03-14T07:28:12;11.20;99.90
62154;DHT22;48140;45.486;9.226;2023-03-14T07:30:38;11.30;99.90
62154;DHT22;48140;45.486;9.226;2023-03-14T07:33:06;11.40;99.90
62154;DHT22;48140;45.486;9.226;2023-03-14T07:35:32;11.70;99.90
62154;DHT22;48140;45.486;9.226;2023-03-14T07:37:57;11.80;99.90
62154;DHT22;48140;45.486;9.226;2023-03-14T07:40:23;11.90;99.90
62154;DHT22;48140;45.486;9.226;2023-03-14T07:42:48;11.80;99.90
62154;DHT22;48140;45.486;9.226;2023-03-14T07:45:15;11.90;99.90
62154;DHT22;48140;45.486;9.226;2023-03-14T07:47:40;11.80;99.90
62154;DHT22;48140;45.486;9.226;2023-03-14T07:50:07;11.90;99.90
62154;DHT22;48140;45.486;9.226;2023-03-14T07:52:33;12.00;99.90
62154;DHT22;48140;45.486;9.226;2023-03-14T07:54:58;12.00;99.90
62154;DHT22;48140;45.486;9.226;2023-03-14T07:57:24;11.90;99.90
62154;DHT22;48140;45.486;9.226;2023-03-14T07:59:50;11.80;99.90
62154;DHT22;48140;45.486;9.226;2023-03-14T08:02:16;11.70;99.90
62154;DHT22;48140;45.486;9.226;2023-03-14T08:04:43;11.70;99.90
62154;DHT22;48140;45.486;9.226;2023-03-14T08:07:08;11.60;99.90
62154;DHT22;48140;45.486;9.226;2023-03-14T08:09:34;11.40;99.90
62154;DHT22;48140;45.486;9.226;2023-03-14T08:12:00;11.60;99.90
62154;DHT22;48140;45.486;9.226;2023-03-14T08:14:25;11.70;99.90
62154;DHT22;48140;45.486;9.226;2023-03-14T08:16:54;11.80;99.90
62154;DHT22;48140;45.486;9.226;2023-03-14T08:19:20;12.30;99.90
62154;DHT22;48140;45.486;9.226;2023-03-14T08:21:46;12.00;99.90
62154;DHT22;48140;45.486;9.226;2023-03-14T08:24:11;12.20;99.90
62154;DHT22;48140;45.486;9.226;2023-03-14T08:26:37;12.20;99.90
62154;DHT22;48140;45.486;9.226;2023-03-14T08:29:03;12.30;99.90
62154;DHT22;48140;45.486;9.226;2023-03-14T08:31:29;12.40;99.90
62154;DHT22;48140;45.486;9.226;2023-03-14T08:33:58;12.40;99.90
62154;DHT22;48140;45.486;9.226;2023-03-14T08:36:24;12.40;99.90
62154;DHT22;48140;45.486;9.226;2023-03-14T08:38:50;12.40;99.90
62154;DHT22;48140;45.486;9.226;2023-03-14T08:41:15;12.50;99.90
62154;DHT22;48140;45.486;9.226;2023-03-14T08:43:41;12.60;99.90
62154;DHT22;48140;45.486;9.226;2023-03-14T08:46:07;12.60;99.90
62154;DHT22;48140;45.486;9.226;2023-03-14T08:48:32;12.70;99.90
62154;DHT22;48140;45.486;9.226;2023-03-14T08:51:12;12.90;99.90
62154;DHT22;48140;45.486;9.226;2023-03-14T08:53:39;13.20;99.90
62154;DHT22;48140;45.486;9.226;2023-03-14T08:56:06;13.40;99.90
62154;DHT22;48140;45.486;9.226;2023-03-14T08:58:32;13.60;99.90
62154;DHT22;48140;45.486;9.226;2023-03-14T09:00:59;13.70;99.90
62154;DHT22;48140;45.486;9.226;2023-03-14T09:03:25;13.80;99.90
62154;DHT22;48140;45.486;9.226;2023-03-14T09:05:51;13.80;99.70
62154;DHT22;48140;45.486;9.226;2023-03-14T09:08:17;13.80;99.50
62154;DHT22;48140;45.486;9.226;2023-03-14T09:10:43;13.70;99.10
62154;DHT22;48140;45.486;9.226;2023-03-14T09:13:09;13.50;99.50
62154;DHT22;48140;45.486;9.226;2023-03-14T09:15:34;13.40;99.90
62154;DHT22;48140;45.486;9.226;2023-03-14T09:18:00;13.40;99.90
62154;DHT22;48140;45.486;9.226;2023-03-14T09:20:26;13.30;99.90
62154;DHT22;48140;45.486;9.226;2023-03-14T09:22:52;13.20;99.90
62154;DHT22;48140;45.486;9.226;2023-03-14T09:25:17;13.00;99.90
62154;DHT22;48140;45.486;9.226;2023-03-14T09:27:43;13.00;99.90
62154;DHT22;48140;45.486;9.226;2023-03-14T09:30:09;12.90;99.90
62154;DHT22;48140;45.486;9.226;2023-03-14T09:32:35;13.00;99.90
62154;DHT22;48140;45.486;9.226;2023-03-14T09:35:00;13.10;99.90
62154;DHT22;48140;45.486;9.226;2023-03-14T09:37:26;13.20;99.90
62154;DHT22;48140;45.486;9.226;2023-03-14T09:39:52;13.20;99.90
62154;DHT22;48140;45.486;9.226;2023-03-14T09:42:21;13.30;99.90
62154;DHT22;48140;45.486;9.226;2023-03-14T09:44:57;13.40;99.90
62154;DHT22;48140;45.486;9.226;2023-03-14T09:47:25;13.50;99.90
62154;DHT22;48140;45.486;9.226;2023-03-14T09:49:51;13.50;99.90
62154;DHT22;48140;45.486;9.226;2023-03-14T09:52:29;13.70;99.20
62154;DHT22;48140;45.486;9.226;2023-03-14T09:55:03;13.70;98.90
62154;DHT22;48140;45.486;9.226;2023-03-14T09:57:30;13.70;98.20
62154;DHT22;48140;45.486;9.226;2023-03-14T10:03:04;13.90;98.30
62154;DHT22;48140;45.486;9.226;2023-03-14T10:05:36;14.00;97.70
62154;DHT22;48140;45.486;9.226;2023-03-14T10:08:02;14.20;97.30
62154;DHT22;48140;45.486;9.226;2023-03-14T10:10:28;14.30;96.80
62154;DHT22;48140;45.486;9.226;2023-03-14T10:13:15;14.40;96.20
62154;DHT22;48140;45.486;9.226;2023-03-14T10:15:42;14.50;96.10
62154;DHT22;48140;45.486;9.226;2023-03-14T10:18:13;14.40;95.60
62154;DHT22;48140;45.486;9.226;2023-03-14T10:20:42;14.40;96.20
62154;DHT22;48140;45.486;9.226;2023-03-14T10:25:40;14.40;95.40
62154;DHT22;48140;45.486;9.226;2023-03-14T10:28:26;14.40;95.40
62154;DHT22;48140;45.486;9.226;2023-03-14T10:30:52;14.60;94.80
62154;DHT22;48140;45.486;9.226;2023-03-14T10:33:22;14.90;94.20
62154;DHT22;48140;45.486;9.226;2023-03-14T10:36:00;15.40;92.40
62154;DHT22;48140;45.486;9.226;2023-03-14T10:38:32;15.70;91.20
62154;DHT22;48140;45.486;9.226;2023-03-14T10:40:59;16.00;90.90
62154;DHT22;48140;45.486;9.226;2023-03-14T10:43:33;16.20;91.00
62154;DHT22;48140;45.486;9.226;2023-03-14T10:46:09;16.20;91.50
62154;DHT22;48140;45.486;9.226;2023-03-14T10:48:36;16.20;91.30
62154;DHT22;48140;45.486;9.226;2023-03-14T10:51:19;16.10;90.90
62154;DHT22;48140;45.486;9.226;2023-03-14T10:54:03;16.10;90.50
62154;DHT22;48140;45.486;9.226;2023-03-14T10:56:37;15.90;90.80
62154;DHT22;48140;45.486;9.226;2023-03-14T10:59:10;15.90;90.70
62154;DHT22;48140;45.486;9.226;2023-03-14T11:10:20;15.40;92.40
62154;DHT22;48140;45.486;9.226;2023-03-14T11:13:13;15.50;91.80
62154;DHT22;48140;45.486;9.226;2023-03-14T11:32:10;15.70;90.60
62154;DHT22;48140;45.486;9.226;2023-03-14T11:34:54;15.80;90.80
62154;DHT22;48140;45.486;9.226;2023-03-14T11:38:33;15.90;91.10
62154;DHT22;48140;45.486;9.226;2023-03-14T11:40:31;16.00;90.80
62154;DHT22;48140;45.486;9.226;2023-03-14T11:43:39;16.30;89.90
62154;DHT22;48140;45.486;9.226;2023-03-14T11:46:21;15.80;90.30
62154;DHT22;48140;45.486;9.226;2023-03-14T11:48:57;15.80;90.40
62154;DHT22;48140;45.486;9.226;2023-03-14T11:51:34;15.70;90.60
62154;DHT22;48140;45.486;9.226;2023-03-14T11:56:59;15.80;90.20
62154;DHT22;48140;45.486;9.226;2023-03-14T12:10:40;16.00;90.10
62154;DHT22;48140;45.486;9.226;2023-03-14T12:13:10;16.20;89.30
62154;DHT22;48140;45.486;9.226;2023-03-14T12:15:40;16.20;89.50
62154;DHT22;48140;45.486;9.226;2023-03-14T12:18:19;16.40;88.70
62154;DHT22;48140;45.486;9.226;2023-03-14T12:20:57;16.50;88.10
62154;DHT22;48140;45.486;9.226;2023-03-14T12:23:24;16.40;87.50
62154;DHT22;48140;45.486;9.226;2023-03-14T12:28:52;16.30;88.20
62154;DHT22;48140;45.486;9.226;2023-03-14T12:34:02;16.60;87.00
62154;DHT22;48140;45.486;9.226;2023-03-14T12:39:35;17.10;85.80
62154;DHT22;48140;45.486;9.226;2023-03-14T12:49:49;17.10;83.10
62154;DHT22;48140;45.486;9.226;2023-03-14T12:52:22;17.10;83.40
62154;DHT22;48140;45.486;9.226;2023-03-14T12:55:16;17.10;84.40
62154;DHT22;48140;45.486;9.226;2023-03-14T12:57:59;17.60;82.00
62154;DHT22;48140;45.486;9.226;2023-03-14T13:00:32;18.00;79.60
62154;DHT22;48140;45.486;9.226;2023-03-14T13:06:00;17.90;79.10
62154;DHT22;48140;45.486;9.226;2023-03-14T13:08:45;17.60;80.80
62154;DHT22;48140;45.486;9.226;2023-03-14T13:11:19;17.50;81.70
62154;DHT22;48140;45.486;9.226;2023-03-14T13:13:51;17.70;81.60
62154;DHT22;48140;45.486;9.226;2023-03-14T13:16:20;17.80;80.20
62154;DHT22;48140;45.486;9.226;2023-03-14T13:18:48;17.80;80.10
62154;DHT22;48140;45.486;9.226;2023-03-14T13:21:18;17.80;80.00
62154;DHT22;48140;45.486;9.226;2023-03-14T13:23:58;17.60;80.80
62154;DHT22;48140;45.486;9.226;2023-03-14T13:26:42;17.20;82.80
62154;DHT22;48140;45.486;9.226;2023-03-14T13:29:28;17.10;84.70
62154;DHT22;48140;45.486;9.226;2023-03-14T13:31:56;17.20;85.00
62154;DHT22;48140;45.486;9.226;2023-03-14T13:34:34;17.20;83.70
62154;DHT22;48140;45.486;9.226;2023-03-14T13:37:00;17.20;84.30
62154;DHT22;48140;45.486;9.226;2023-03-14T13:39:27;17.20;84.80
62154;DHT22;48140;45.486;9.226;2023-03-14T13:41:58;17.10;86.10
62154;DHT22;48140;45.486;9.226;2023-03-14T13:44:36;17.20;88.40
62154;DHT22;48140;45.486;9.226;2023-03-14T13:47:12;17.20;87.60
62154;DHT22;48140;45.486;9.226;2023-03-14T13:49:38;16.50;90.30
62154;DHT22;48140;45.486;9.226;2023-03-14T13:52:22;16.90;90.50
62154;DHT22;48140;45.486;9.226;2023-03-14T13:54:47;17.40;87.10
62154;DHT22;48140;45.486;9.226;2023-03-14T13:57:13;17.80;84.70
62154;DHT22;48140;45.486;9.226;2023-03-14T13:59:38;17.40;85.60
62154;DHT22;48140;45.486;9.226;2023-03-14T14:02:13;17.30;85.90
62154;DHT22;48140;45.486;9.226;2023-03-14T14:04:40;17.20;84.60
62154;DHT22;48140;45.486;9.226;2023-03-14T14:07:08;17.20;84.30
62154;DHT22;48140;45.486;9.226;2023-03-14T14:09:39;16.90;86.60
62154;DHT22;48140;45.486;9.226;2023-03-14T14:12:34;17.30;86.00
62154;DHT22;48140;45.486;9.226;2023-03-14T14:15:05;17.60;84.10
62154;DHT22;48140;45.486;9.226;2023-03-14T14:17:51;17.40;85.60
62154;DHT22;48140;45.486;9.226;2023-03-14T14:20:31;16.70;86.80
62154;DHT22;48140;45.486;9.226;2023-03-14T14:25:38;16.70;87.50
62154;DHT22;48140;45.486;9.226;2023-03-14T14:28:29;17.10;88.40
62154;DHT22;48140;45.486;9.226;2023-03-14T14:33:56;17.10;86.40
62154;DHT22;48140;45.486;9.226;2023-03-14T14:39:01;16.80;87.10
62154;DHT22;48140;45.486;9.226;2023-03-14T14:41:40;17.00;86.20
62154;DHT22;48140;45.486;9.226;2023-03-14T15:35:53;15.10;90.40
62154;DHT22;48140;45.486;9.226;2023-03-14T15:51:17;14.80;89.40
62154;DHT22;48140;45.486;9.226;2023-03-14T15:56:19;14.80;90.10
62154;DHT22;48140;45.486;9.226;2023-03-14T15:58:45;14.70;90.50
62154;DHT22;48140;45.486;9.226;2023-03-14T16:01:15;14.60;90.60
62154;DHT22;48140;45.486;9.226;2023-03-14T16:11:29;14.70;91.40
62154;DHT22;48140;45.486;9.226;2023-03-14T16:13:55;15.00;91.50
62154;DHT22;48140;45.486;9.226;2023-03-14T16:21:31;14.50;92.30
62154;DHT22;48140;45.486;9.226;2023-03-14T16:23:58;15.00;92.20
62154;DHT22;48140;45.486;9.226;2023-03-14T16:26:25;14.60;92.30
62154;DHT22;48140;45.486;9.226;2023-03-14T16:28:50;14.60;92.40
62154;DHT22;48140;45.486;9.226;2023-03-14T16:31:18;14.50;92.60
62154;DHT22;48140;45.486;9.226;2023-03-14T16:33:45;14.50;92.60
62154;DHT22;48140;45.486;9.226;2023-03-14T16:36:12;14.50;92.20
62154;DHT22;48140;45.486;9.226;2023-03-14T16:38:40;14.40;92.40
62154;DHT22;48140;45.486;9.226;2023-03-14T16:41:13;14.40;92.10
62154;DHT22;48140;45.486;9.226;2023-03-14T16:43:39;14.40;92.30
62154;DHT22;48140;45.486;9.226;2023-03-14T16:48:37;14.30;92.40
62154;DHT22;48140;45.486;9.226;2023-03-14T16:51:03;15.80;92.80
62154;DHT22;48140;45.486;9.226;2023-03-14T17:11:36;14.20;93.80
62154;DHT22;48140;45.486;9.226;2023-03-14T17:14:02;14.20;93.90
62154;DHT22;48140;45.486;9.226;2023-03-14T17:16:29;14.20;94.10
62154;DHT22;48140;45.486;9.226;2023-03-14T17:18:55;14.10;94.30
62154;DHT22;48140;45.486;9.226;2023-03-14T17:21:20;14.10;94.60
62154;DHT22;48140;45.486;9.226;2023-03-14T17:23:46;14.30;94.90
62154;DHT22;48140;45.486;9.226;2023-03-14T17:26:12;14.00;95.10
62154;DHT22;48140;45.486;9.226;2023-03-14T17:28:38;13.90;95.50
62154;DHT22;48140;45.486;9.226;2023-03-14T17:31:09;13.90;95.60
62154;DHT22;48140;45.486;9.226;2023-03-14T17:33:37;13.90;95.80
62154;DHT22;48140;45.486;9.226;2023-03-14T17:36:03;13.80;96.00
62154;DHT22;48140;45.486;9.226;2023-03-14T17:38:28;13.80;96.00
62154;DHT22;48140;45.486;9.226;2023-03-14T17:40:55;13.80;96.00
62154;DHT22;48140;45.486;9.226;2023-03-14T17:43:20;13.80;96.20
62154;DHT22;48140;45.486;9.226;2023-03-14T17:45:46;13.80;96.00
62154;DHT22;48140;45.486;9.226;2023-03-14T17:48:12;13.80;96.10
62154;DHT22;48140;45.486;9.226;2023-03-14T17:50:38;13.80;95.90
62154;DHT22;48140;45.486;9.226;2023-03-14T17:53:04;13.80;95.90
62154;DHT22;48140;45.486;9.226;2023-03-14T17:55:30;13.80;95.80
62154;DHT22;48140;45.486;9.226;2023-03-14T17:57:56;13.80;96.00
62154;DHT22;48140;45.486;9.226;2023-03-14T18:00:22;13.70;96.10
62154;DHT22;48140;45.486;9.226;2023-03-14T18:02:49;13.70;96.20
62154;DHT22;48140;45.486;9.226;2023-03-14T18:05:14;13.70;96.30
62154;DHT22;48140;45.486;9.226;2023-03-14T18:07:40;13.70;96.20
62154;DHT22;48140;45.486;9.226;2023-03-14T18:10:07;13.60;96.20
62154;DHT22;48140;45.486;9.226;2023-03-14T18:12:35;13.60;96.10
62154;DHT22;48140;45.486;9.226;2023-03-14T18:15:01;13.60;96.10
62154;DHT22;48140;45.486;9.226;2023-03-14T18:17:28;13.60;96.30
62154;DHT22;48140;45.486;9.226;2023-03-14T18:19:53;13.50;96.30
62154;DHT22;48140;45.486;9.226;2023-03-14T18:22:20;13.60;96.70
62154;DHT22;48140;45.486;9.226;2023-03-14T18:24:46;13.60;96.70
62154;DHT22;48140;45.486;9.226;2023-03-14T18:27:12;13.50;96.80
62154;DHT22;48140;45.486;9.226;2023-03-14T18:29:40;13.50;96.90
62154;DHT22;48140;45.486;9.226;2023-03-14T18:32:07;13.50;97.00
62154;DHT22;48140;45.486;9.226;2023-03-14T18:34:33;13.50;97.00
62154;DHT22;48140;45.486;9.226;2023-03-14T18:36:59;13.40;97.10
62154;DHT22;48140;45.486;9.226;2023-03-14T18:39:25;13.40;97.30
62154;DHT22;48140;45.486;9.226;2023-03-14T18:41:51;13.40;97.30
62154;DHT22;48140;45.486;9.226;2023-03-14T18:44:17;13.40;97.20
62154;DHT22;48140;45.486;9.226;2023-03-14T18:46:43;13.40;97.50
62154;DHT22;48140;45.486;9.226;2023-03-14T18:49:09;13.30;97.50
62154;DHT22;48140;45.486;9.226;2023-03-14T18:51:35;13.40;97.60
62154;DHT22;48140;45.486;9.226;2023-03-14T18:54:01;13.30;97.50
62154;DHT22;48140;45.486;9.226;2023-03-14T18:56:28;13.30;97.50
62154;DHT22;48140;45.486;9.226;2023-03-14T18:58:54;13.30;97.50
62154;DHT22;48140;45.486;9.226;2023-03-14T19:01:20;13.30;97.30